sensor_id;sensor_type;location;lat;lon;timestamp;P1;durP1;ratioP1;P2;durP2;ratioP2
59854;SDS011;45732;52.850;6.896;2023-02-15T00:01:54;34.58;;;30.65;;
59854;SDS011;45732;52.850;6.896;2023-02-15T00:04:23;77.45;;;32.38;;
59854;SDS011;45732;52.850;6.896;2023-02-15T00:07:10;49.00;;;31.10;;
59854;SDS011;45732;52.850;6.896;2023-02-15T00:09:35;38.22;;;31.88;;
59854;SDS011;45732;52.850;6.896;2023-02-15T00:12:01;44.97;;;35.00;;
59854;SDS011;45732;52.850;6.896;2023-02-15T00:14:27;41.80;;;34.58;;
59854;SDS011;45732;52.850;6.896;2023-02-15T00:16:52;40.58;;;34.33;;
59854;SDS011;45732;52.850;6.896;2023-02-15T00:19:20;43.63;;;34.72;;
59854;SDS011;45732;52.850;6.896;2023-02-15T00:21:47;57.25;;;35.25;;
59854;SDS011;45732;52.850;6.896;2023-02-15T00:24:14;41.72;;;33.28;;
59854;SDS011;45732;52.850;6.896;2023-02-15T00:26:41;39.65;;;32.88;;
59854;SDS011;45732;52.850;6.896;2023-02-15T00:29:09;61.97;;;39.80;;
59854;SDS011;45732;52.850;6.896;2023-02-15T00:31:36;42.67;;;35.72;;
59854;SDS011;45732;52.850;6.896;2023-02-15T00:34:06;53.40;;;41.20;;
59854;SDS011;45732;52.850;6.896;2023-02-15T00:36:35;47.75;;;34.72;;
59854;SDS011;45732;52.850;6.896;2023-02-15T00:39:01;45.65;;;35.60;;
59854;SDS011;45732;52.850;6.896;2023-02-15T00:41:27;47.42;;;36.53;;
59854;SDS011;45732;52.850;6.896;2023-02-15T00:43:52;43.20;;;34.67;;
59854;SDS011;45732;52.850;6.896;2023-02-15T00:46:18;42.65;;;32.90;;
59854;SDS011;45732;52.850;6.896;2023-02-15T00:48:44;32.33;;;27.85;;
59854;SDS011;45732;52.850;6.896;2023-02-15T00:51:10;31.77;;;28.38;;
59854;SDS011;45732;52.850;6.896;2023-02-15T00:53:35;31.15;;;25.67;;
59854;SDS011;45732;52.850;6.896;2023-02-15T00:56:01;35.00;;;26.27;;
59854;SDS011;45732;52.850;6.896;2023-02-15T00:58:27;32.55;;;26.35;;
59854;SDS011;45732;52.850;6.896;2023-02-15T01:00:52;32.25;;;28.83;;
59854;SDS011;45732;52.850;6.896;2023-02-15T01:03:19;34.17;;;28.67;;
59854;SDS011;45732;52.850;6.896;2023-02-15T01:05:46;34.40;;;29.40;;
59854;SDS011;45732;52.850;6.896;2023-02-15T01:08:13;31.92;;;27.88;;
59854;SDS011;45732;52.850;6.896;2023-02-15T01:10:38;30.48;;;26.83;;
59854;SDS011;45732;52.850;6.896;2023-02-15T01:13:04;33.78;;;29.40;;
59854;SDS011;45732;52.850;6.896;2023-02-15T01:15:33;34.92;;;30.38;;
59854;SDS011;45732;52.850;6.896;2023-02-15T01:17:59;38.65;;;32.40;;
59854;SDS011;45732;52.850;6.896;2023-02-15T01:20:26;38.05;;;31.70;;
59854;SDS011;45732;52.850;6.896;2023-02-15T01:22:53;36.80;;;30.13;;
59854;SDS011;45732;52.850;6.896;2023-02-15T01:25:20;37.47;;;31.55;;
59854;SDS011;45732;52.850;6.896;2023-02-15T01:27:47;37.67;;;30.95;;
59854;SDS011;45732;52.850;6.896;2023-02-15T01:30:13;36.10;;;29.17;;
59854;SDS011;45732;52.850;6.896;2023-02-15T01:32:40;34.50;;;29.23;;
59854;SDS011;45732;52.850;6.896;2023-02-15T01:35:07;38.47;;;32.30;;
59854;SDS011;45732;52.850;6.896;2023-02-15T01:37:33;43.30;;;34.05;;
59854;SDS011;45732;52.850;6.896;2023-02-15T01:39:59;42.35;;;33.38;;
59854;SDS011;45732;52.850;6.896;2023-02-15T01:42:27;41.90;;;32.97;;
59854;SDS011;45732;52.850;6.896;2023-02-15T01:52:55;43.63;;;35.33;;
59854;SDS011;45732;52.850;6.896;2023-02-15T01:55:26;46.90;;;35.03;;
59854;SDS011;45732;52.850;6.896;2023-02-15T01:57:56;44.28;;;35.33;;
59854;SDS011;45732;52.850;6.896;2023-02-15T02:00:22;45.83;;;35.22;;
59854;SDS011;45732;52.850;6.896;2023-02-15T02:02:48;47.05;;;36.63;;
59854;SDS011;45732;52.850;6.896;2023-02-15T02:05:18;46.08;;;34.88;;
59854;SDS011;45732;52.850;6.896;2023-02-15T02:07:44;45.67;;;35.60;;
59854;SDS011;45732;52.850;6.896;2023-02-15T02:10:14;50.65;;;37.00;;
59854;SDS011;45732;52.850;6.896;2023-02-15T02:12:42;47.53;;;35.97;;
59854;SDS011;45732;52.850;6.896;2023-02-15T02:15:11;46.25;;;34.72;;
59854;SDS011;45732;52.850;6.896;2023-02-15T02:17:42;23.08;;;20.48;;
59854;SDS011;45732;52.850;6.896;2023-02-15T02:45:14;50.08;;;38.50;;
59854;SDS011;45732;52.850;6.896;2023-02-15T02:47:50;48.72;;;36.65;;
59854;SDS011;45732;52.850;6.896;2023-02-15T02:50:21;50.80;;;35.28;;
59854;SDS011;45732;52.850;6.896;2023-02-15T02:52:51;53.78;;;38.42;;
59854;SDS011;45732;52.850;6.896;2023-02-15T02:57:54;51.28;;;38.13;;
59854;SDS011;45732;52.850;6.896;2023-02-15T03:00:27;52.85;;;39.70;;
59854;SDS011;45732;52.850;6.896;2023-02-15T03:03:03;51.58;;;39.00;;
59854;SDS011;45732;52.850;6.896;2023-02-15T03:05:42;48.45;;;38.20;;
59854;SDS011;45732;52.850;6.896;2023-02-15T03:08:10;51.70;;;38.25;;
59854;SDS011;45732;52.850;6.896;2023-02-15T03:10:46;53.60;;;39.10;;
59854;SDS011;45732;52.850;6.896;2023-02-15T03:13:14;59.47;;;40.95;;
59854;SDS011;45732;52.850;6.896;2023-02-15T03:15:40;54.97;;;38.63;;
59854;SDS011;45732;52.850;6.896;2023-02-15T03:18:34;51.50;;;38.42;;
59854;SDS011;45732;52.850;6.896;2023-02-15T03:21:03;50.08;;;36.22;;
59854;SDS011;45732;52.850;6.896;2023-02-15T03:23:32;59.40;;;41.05;;
59854;SDS011;45732;52.850;6.896;2023-02-15T03:26:00;60.45;;;43.40;;
59854;SDS011;45732;52.850;6.896;2023-02-15T03:28:40;49.47;;;36.80;;
59854;SDS011;45732;52.850;6.896;2023-02-15T03:31:09;44.58;;;36.38;;
59854;SDS011;45732;52.850;6.896;2023-02-15T03:33:37;43.80;;;36.42;;
59854;SDS011;45732;52.850;6.896;2023-02-15T03:36:14;47.78;;;37.53;;
59854;SDS011;45732;52.850;6.896;2023-02-15T03:38:51;52.33;;;41.60;;
59854;SDS011;45732;52.850;6.896;2023-02-15T03:42:22;124.50;;;42.00;;
59854;SDS011;45732;52.850;6.896;2023-02-15T03:44:28;73.57;;;38.70;;
59854;SDS011;45732;52.850;6.896;2023-02-15T03:46:58;54.00;;;38.63;;
59854;SDS011;45732;52.850;6.896;2023-02-15T03:52:21;51.05;;;36.20;;
59854;SDS011;45732;52.850;6.896;2023-02-15T03:54:50;38.88;;;33.85;;
59854;SDS011;45732;52.850;6.896;2023-02-15T03:57:21;35.50;;;31.65;;
59854;SDS011;45732;52.850;6.896;2023-02-15T04:00:11;39.35;;;33.25;;
59854;SDS011;45732;52.850;6.896;2023-02-15T04:05:58;40.53;;;33.85;;
59854;SDS011;45732;52.850;6.896;2023-02-15T04:08:27;39.00;;;32.67;;
59854;SDS011;45732;52.850;6.896;2023-02-15T04:11:12;50.33;;;37.63;;
59854;SDS011;45732;52.850;6.896;2023-02-15T04:13:38;102.45;;;39.08;;
59854;SDS011;45732;52.850;6.896;2023-02-15T04:16:04;49.28;;;37.53;;
59854;SDS011;45732;52.850;6.896;2023-02-15T04:18:31;46.40;;;37.20;;
59854;SDS011;45732;52.850;6.896;2023-02-15T04:21:16;46.63;;;35.67;;
59854;SDS011;45732;52.850;6.896;2023-02-15T04:24:01;42.80;;;34.58;;
59854;SDS011;45732;52.850;6.896;2023-02-15T04:26:46;42.45;;;33.70;;
59854;SDS011;45732;52.850;6.896;2023-02-15T04:29:13;43.08;;;33.63;;
59854;SDS011;45732;52.850;6.896;2023-02-15T04:31:40;43.30;;;35.05;;
59854;SDS011;45732;52.850;6.896;2023-02-15T04:34:06;53.70;;;38.90;;
59854;SDS011;45732;52.850;6.896;2023-02-15T04:36:31;75.15;;;41.08;;
59854;SDS011;45732;52.850;6.896;2023-02-15T04:38:57;45.88;;;38.05;;
59854;SDS011;45732;52.850;6.896;2023-02-15T04:41:23;48.30;;;33.15;;
59854;SDS011;45732;52.850;6.896;2023-02-15T04:43:48;40.50;;;31.65;;
59854;SDS011;45732;52.850;6.896;2023-02-15T04:46:14;77.45;;;32.88;;
59854;SDS011;45732;52.850;6.896;2023-02-15T04:48:40;42.13;;;32.38;;
59854;SDS011;45732;52.850;6.896;2023-02-15T04:51:06;38.58;;;32.90;;
59854;SDS011;45732;52.850;6.896;2023-02-15T04:53:32;36.92;;;31.60;;
59854;SDS011;45732;52.850;6.896;2023-02-15T04:55:58;37.78;;;32.03;;
59854;SDS011;45732;52.850;6.896;2023-02-15T04:58:24;42.72;;;33.35;;
59854;SDS011;45732;52.850;6.896;2023-02-15T05:00:50;102.63;;;37.10;;
59854;SDS011;45732;52.850;6.896;2023-02-15T05:03:15;85.00;;;36.60;;
59854;SDS011;45732;52.850;6.896;2023-02-15T05:05:42;48.65;;;34.90;;
59854;SDS011;45732;52.850;6.896;2023-02-15T05:08:07;60.08;;;36.03;;
59854;SDS011;45732;52.850;6.896;2023-02-15T05:10:33;63.88;;;36.35;;
59854;SDS011;45732;52.850;6.896;2023-02-15T05:12:59;54.08;;;36.15;;
59854;SDS011;45732;52.850;6.896;2023-02-15T05:15:24;59.20;;;36.30;;
59854;SDS011;45732;52.850;6.896;2023-02-15T05:17:50;66.15;;;34.15;;
59854;SDS011;45732;52.850;6.896;2023-02-15T05:20:16;71.70;;;33.40;;
59854;SDS011;45732;52.850;6.896;2023-02-15T05:22:42;40.47;;;32.97;;
59854;SDS011;45732;52.850;6.896;2023-02-15T05:25:08;45.60;;;36.15;;
59854;SDS011;45732;52.850;6.896;2023-02-15T05:27:53;45.13;;;36.03;;
59854;SDS011;45732;52.850;6.896;2023-02-15T05:30:37;46.40;;;35.70;;
59854;SDS011;45732;52.850;6.896;2023-02-15T05:33:05;46.40;;;36.47;;
59854;SDS011;45732;52.850;6.896;2023-02-15T05:35:31;43.30;;;34.53;;
59854;SDS011;45732;52.850;6.896;2023-02-15T05:37:57;42.55;;;34.75;;
59854;SDS011;45732;52.850;6.896;2023-02-15T05:40:23;43.45;;;34.78;;
59854;SDS011;45732;52.850;6.896;2023-02-15T05:42:48;44.80;;;35.90;;
59854;SDS011;45732;52.850;6.896;2023-02-15T05:45:14;48.25;;;37.83;;
59854;SDS011;45732;52.850;6.896;2023-02-15T05:47:40;46.42;;;36.88;;
59854;SDS011;45732;52.850;6.896;2023-02-15T05:50:07;46.85;;;36.05;;
59854;SDS011;45732;52.850;6.896;2023-02-15T05:52:34;44.95;;;35.92;;
59854;SDS011;45732;52.850;6.896;2023-02-15T05:55:00;45.60;;;35.92;;
59854;SDS011;45732;52.850;6.896;2023-02-15T05:57:27;45.47;;;34.97;;
59854;SDS011;45732;52.850;6.896;2023-02-15T05:59:52;41.95;;;32.83;;
59854;SDS011;45732;52.850;6.896;2023-02-15T06:02:18;46.45;;;34.35;;
59854;SDS011;45732;52.850;6.896;2023-02-15T06:04:44;43.40;;;32.78;;
59854;SDS011;45732;52.850;6.896;2023-02-15T06:07:09;39.88;;;33.20;;
59854;SDS011;45732;52.850;6.896;2023-02-15T06:09:35;39.95;;;32.30;;
59854;SDS011;45732;52.850;6.896;2023-02-15T06:12:01;37.88;;;30.77;;
59854;SDS011;45732;52.850;6.896;2023-02-15T06:14:26;36.25;;;30.50;;
59854;SDS011;45732;52.850;6.896;2023-02-15T06:16:52;38.63;;;30.63;;
59854;SDS011;45732;52.850;6.896;2023-02-15T06:19:18;37.55;;;31.02;;
59854;SDS011;45732;52.850;6.896;2023-02-15T06:21:44;35.80;;;29.23;;
59854;SDS011;45732;52.850;6.896;2023-02-15T06:24:09;39.05;;;30.88;;
59854;SDS011;45732;52.850;6.896;2023-02-15T06:26:35;38.90;;;29.92;;
59854;SDS011;45732;52.850;6.896;2023-02-15T06:29:01;40.67;;;30.17;;
59854;SDS011;45732;52.850;6.896;2023-02-15T06:31:27;44.95;;;31.58;;
59854;SDS011;45732;52.850;6.896;2023-02-15T06:33:53;50.95;;;34.30;;
59854;SDS011;45732;52.850;6.896;2023-02-15T06:36:25;45.22;;;33.45;;
59854;SDS011;45732;52.850;6.896;2023-02-15T06:38:55;52.83;;;34.05;;
59854;SDS011;45732;52.850;6.896;2023-02-15T06:41:21;49.15;;;34.70;;
59854;SDS011;45732;52.850;6.896;2023-02-15T06:43:47;51.00;;;35.03;;
59854;SDS011;45732;52.850;6.896;2023-02-15T06:46:13;48.30;;;33.00;;
59854;SDS011;45732;52.850;6.896;2023-02-15T06:48:38;45.90;;;33.05;;
59854;SDS011;45732;52.850;6.896;2023-02-15T06:51:04;48.17;;;34.38;;
59854;SDS011;45732;52.850;6.896;2023-02-15T06:53:30;46.13;;;32.95;;
59854;SDS011;45732;52.850;6.896;2023-02-15T06:56:02;42.10;;;32.28;;
59854;SDS011;45732;52.850;6.896;2023-02-15T06:58:31;42.75;;;32.60;;
59854;SDS011;45732;52.850;6.896;2023-02-15T07:00:57;40.03;;;30.50;;
59854;SDS011;45732;52.850;6.896;2023-02-15T07:03:23;41.95;;;30.17;;
59854;SDS011;45732;52.850;6.896;2023-02-15T07:05:53;41.00;;;30.70;;
59854;SDS011;45732;52.850;6.896;2023-02-15T07:08:21;41.15;;;32.72;;
59854;SDS011;45732;52.850;6.896;2023-02-15T07:10:48;40.95;;;31.52;;
59854;SDS011;45732;52.850;6.896;2023-02-15T07:13:14;42.08;;;30.58;;
59854;SDS011;45732;52.850;6.896;2023-02-15T07:15:39;40.05;;;29.92;;
59854;SDS011;45732;52.850;6.896;2023-02-15T07:18:05;41.30;;;29.77;;
59854;SDS011;45732;52.850;6.896;2023-02-15T07:20:31;39.58;;;30.35;;
59854;SDS011;45732;52.850;6.896;2023-02-15T07:22:58;38.33;;;29.35;;
59854;SDS011;45732;52.850;6.896;2023-02-15T07:25:24;36.05;;;28.70;;
59854;SDS011;45732;52.850;6.896;2023-02-15T07:27:55;42.80;;;32.05;;
59854;SDS011;45732;52.850;6.896;2023-02-15T07:30:21;42.40;;;31.50;;
59854;SDS011;45732;52.850;6.896;2023-02-15T07:32:47;44.17;;;32.08;;
59854;SDS011;45732;52.850;6.896;2023-02-15T07:35:32;48.28;;;30.42;;
59854;SDS011;45732;52.850;6.896;2023-02-15T07:37:58;45.97;;;32.50;;
59854;SDS011;45732;52.850;6.896;2023-02-15T07:40:24;45.95;;;31.80;;
59854;SDS011;45732;52.850;6.896;2023-02-15T07:42:50;49.75;;;34.55;;
59854;SDS011;45732;52.850;6.896;2023-02-15T07:45:18;47.40;;;33.35;;
59854;SDS011;45732;52.850;6.896;2023-02-15T07:47:44;47.13;;;33.15;;
59854;SDS011;45732;52.850;6.896;2023-02-15T07:50:09;49.20;;;35.00;;
59854;SDS011;45732;52.850;6.896;2023-02-15T07:52:35;48.85;;;33.17;;
59854;SDS011;45732;52.850;6.896;2023-02-15T07:55:01;47.78;;;32.58;;
59854;SDS011;45732;52.850;6.896;2023-02-15T07:57:26;46.72;;;32.65;;
59854;SDS011;45732;52.850;6.896;2023-02-15T07:59:53;51.90;;;34.42;;
59854;SDS011;45732;52.850;6.896;2023-02-15T08:02:18;48.40;;;33.83;;
59854;SDS011;45732;52.850;6.896;2023-02-15T08:04:44;46.40;;;33.28;;
59854;SDS011;45732;52.850;6.896;2023-02-15T08:07:10;47.17;;;33.45;;
59854;SDS011;45732;52.850;6.896;2023-02-15T08:09:35;51.80;;;35.78;;
59854;SDS011;45732;52.850;6.896;2023-02-15T08:12:01;47.05;;;34.88;;
59854;SDS011;45732;52.850;6.896;2023-02-15T08:14:27;52.58;;;37.28;;
59854;SDS011;45732;52.850;6.896;2023-02-15T08:16:54;51.90;;;36.80;;
59854;SDS011;45732;52.850;6.896;2023-02-15T08:19:28;46.28;;;33.83;;
59854;SDS011;45732;52.850;6.896;2023-02-15T08:21:55;48.55;;;33.97;;
59854;SDS011;45732;52.850;6.896;2023-02-15T08:24:23;52.33;;;35.42;;
59854;SDS011;45732;52.850;6.896;2023-02-15T08:26:51;52.70;;;36.67;;
59854;SDS011;45732;52.850;6.896;2023-02-15T08:29:24;50.10;;;34.45;;
59854;SDS011;45732;52.850;6.896;2023-02-15T08:31:55;50.65;;;35.60;;
59854;SDS011;45732;52.850;6.896;2023-02-15T08:34:27;50.55;;;36.72;;
59854;SDS011;45732;52.850;6.896;2023-02-15T08:36:53;49.10;;;34.55;;
59854;SDS011;45732;52.850;6.896;2023-02-15T08:39:19;46.47;;;33.92;;
59854;SDS011;45732;52.850;6.896;2023-02-15T08:41:46;51.70;;;35.50;;
59854;SDS011;45732;52.850;6.896;2023-02-15T08:44:13;48.20;;;33.13;;
59854;SDS011;45732;52.850;6.896;2023-02-15T08:46:41;49.35;;;34.53;;
59854;SDS011;45732;52.850;6.896;2023-02-15T08:49:08;47.45;;;34.22;;
59854;SDS011;45732;52.850;6.896;2023-02-15T08:51:35;48.05;;;33.95;;
59854;SDS011;45732;52.850;6.896;2023-02-15T08:54:07;46.92;;;33.45;;
59854;SDS011;45732;52.850;6.896;2023-02-15T08:59:01;49.33;;;33.78;;
59854;SDS011;45732;52.850;6.896;2023-02-15T09:01:29;47.92;;;33.22;;
59854;SDS011;45732;52.850;6.896;2023-02-15T09:03:57;47.10;;;34.13;;
59854;SDS011;45732;52.850;6.896;2023-02-15T09:06:29;48.53;;;34.15;;
59854;SDS011;45732;52.850;6.896;2023-02-15T09:08:55;48.65;;;34.40;;
59854;SDS011;45732;52.850;6.896;2023-02-15T09:11:22;47.20;;;34.47;;
59854;SDS011;45732;52.850;6.896;2023-02-15T09:14:09;49.03;;;35.63;;
59854;SDS011;45732;52.850;6.896;2023-02-15T09:16:38;46.30;;;33.72;;
59854;SDS011;45732;52.850;6.896;2023-02-15T09:19:05;47.75;;;34.85;;
59854;SDS011;45732;52.850;6.896;2023-02-15T09:21:31;50.72;;;35.97;;
59854;SDS011;45732;52.850;6.896;2023-02-15T09:24:00;48.58;;;34.65;;
59854;SDS011;45732;52.850;6.896;2023-02-15T09:26:28;50.97;;;35.75;;
59854;SDS011;45732;52.850;6.896;2023-02-15T09:28:56;51.38;;;37.42;;
59854;SDS011;45732;52.850;6.896;2023-02-15T09:31:24;47.05;;;34.78;;
59854;SDS011;45732;52.850;6.896;2023-02-15T09:33:52;50.60;;;35.42;;
59854;SDS011;45732;52.850;6.896;2023-02-15T09:36:25;49.42;;;37.17;;
59854;SDS011;45732;52.850;6.896;2023-02-15T09:58:38;49.50;;;36.25;;
59854;SDS011;45732;52.850;6.896;2023-02-15T10:00:49;48.95;;;37.40;;
59854;SDS011;45732;52.850;6.896;2023-02-15T10:06:14;49.47;;;36.45;;
59854;SDS011;45732;52.850;6.896;2023-02-15T10:12:01;49.35;;;37.05;;
59854;SDS011;45732;52.850;6.896;2023-02-15T10:23:02;54.03;;;38.15;;
59854;SDS011;45732;52.850;6.896;2023-02-15T10:26:01;49.47;;;38.00;;
59854;SDS011;45732;52.850;6.896;2023-02-15T10:28:42;51.75;;;36.92;;
59854;SDS011;45732;52.850;6.896;2023-02-15T10:31:24;49.60;;;38.05;;
59854;SDS011;45732;52.850;6.896;2023-02-15T10:33:59;48.88;;;37.50;;
59854;SDS011;45732;52.850;6.896;2023-02-15T10:37:00;51.10;;;37.22;;
59854;SDS011;45732;52.850;6.896;2023-02-15T10:42:11;47.95;;;36.65;;
59854;SDS011;45732;52.850;6.896;2023-02-15T10:52:40;49.88;;;35.97;;
59854;SDS011;45732;52.850;6.896;2023-02-15T10:55:26;52.90;;;35.05;;
59854;SDS011;45732;52.850;6.896;2023-02-15T11:00:53;48.70;;;35.30;;
59854;SDS011;45732;52.850;6.896;2023-02-15T11:06:17;50.25;;;35.60;;
59854;SDS011;45732;52.850;6.896;2023-02-15T11:08:46;50.53;;;36.70;;
59854;SDS011;45732;52.850;6.896;2023-02-15T11:11:20;50.03;;;35.58;;
59854;SDS011;45732;52.850;6.896;2023-02-15T11:13:58;47.25;;;35.80;;
59854;SDS011;45732;52.850;6.896;2023-02-15T11:16:34;47.75;;;36.00;;
59854;SDS011;45732;52.850;6.896;2023-02-15T11:19:07;50.05;;;35.83;;
59854;SDS011;45732;52.850;6.896;2023-02-15T11:21:43;46.58;;;34.88;;
59854;SDS011;45732;52.850;6.896;2023-02-15T11:24:16;49.53;;;36.47;;
59854;SDS011;45732;52.850;6.896;2023-02-15T11:27:04;46.35;;;34.85;;
59854;SDS011;45732;52.850;6.896;2023-02-15T11:32:44;48.85;;;35.50;;
59854;SDS011;45732;52.850;6.896;2023-02-15T11:35:18;47.10;;;34.60;;
59854;SDS011;45732;52.850;6.896;2023-02-15T11:37:49;46.17;;;35.55;;
59854;SDS011;45732;52.850;6.896;2023-02-15T11:40:20;48.42;;;35.60;;
59854;SDS011;45732;52.850;6.896;2023-02-15T11:42:47;53.85;;;35.78;;
59854;SDS011;45732;52.850;6.896;2023-02-15T11:47:46;50.95;;;36.35;;
59854;SDS011;45732;52.850;6.896;2023-02-15T11:50:15;48.35;;;35.45;;
59854;SDS011;45732;52.850;6.896;2023-02-15T11:52:47;49.92;;;36.10;;
59854;SDS011;45732;52.850;6.896;2023-02-15T11:55:14;49.10;;;36.40;;
59854;SDS011;45732;52.850;6.896;2023-02-15T11:57:50;49.03;;;35.50;;
59854;SDS011;45732;52.850;6.896;2023-02-15T12:00:40;52.03;;;36.50;;
59854;SDS011;45732;52.850;6.896;2023-02-15T12:03:14;54.65;;;37.30;;
59854;SDS011;45732;52.850;6.896;2023-02-15T12:05:47;55.25;;;35.42;;
59854;SDS011;45732;52.850;6.896;2023-02-15T12:08:19;46.45;;;34.60;;
59854;SDS011;45732;52.850;6.896;2023-02-15T12:13:58;49.03;;;34.42;;
59854;SDS011;45732;52.850;6.896;2023-02-15T12:16:26;50.03;;;35.55;;
59854;SDS011;45732;52.850;6.896;2023-02-15T12:18:57;50.78;;;34.70;;
59854;SDS011;45732;52.850;6.896;2023-02-15T12:23:57;49.75;;;35.17;;
59854;SDS011;45732;52.850;6.896;2023-02-15T12:26:40;53.10;;;35.15;;
59854;SDS011;45732;52.850;6.896;2023-02-15T12:29:12;46.33;;;32.72;;
59854;SDS011;45732;52.850;6.896;2023-02-15T12:31:45;48.50;;;32.92;;
59854;SDS011;45732;52.850;6.896;2023-02-15T12:34:47;53.72;;;34.45;;
59854;SDS011;45732;52.850;6.896;2023-02-15T12:37:09;49.33;;;33.70;;
59854;SDS011;45732;52.850;6.896;2023-02-15T12:39:52;49.22;;;32.60;;
59854;SDS011;45732;52.850;6.896;2023-02-15T12:42:20;48.33;;;32.75;;
59854;SDS011;45732;52.850;6.896;2023-02-15T12:47:19;48.45;;;32.17;;
59854;SDS011;45732;52.850;6.896;2023-02-15T12:50:04;45.88;;;32.08;;
59854;SDS011;45732;52.850;6.896;2023-02-15T12:52:36;44.47;;;30.83;;
59854;SDS011;45732;52.850;6.896;2023-02-15T12:55:19;44.67;;;31.63;;
59854;SDS011;45732;52.850;6.896;2023-02-15T12:58:04;48.13;;;31.85;;
59854;SDS011;45732;52.850;6.896;2023-02-15T13:00:44;45.33;;;32.83;;
59854;SDS011;45732;52.850;6.896;2023-02-15T13:03:17;42.17;;;29.42;;
59854;SDS011;45732;52.850;6.896;2023-02-15T13:05:46;43.90;;;30.15;;
59854;SDS011;45732;52.850;6.896;2023-02-15T13:08:19;43.85;;;30.65;;
59854;SDS011;45732;52.850;6.896;2023-02-15T13:13:52;45.97;;;29.30;;
59854;SDS011;45732;52.850;6.896;2023-02-15T13:16:24;44.72;;;30.08;;
59854;SDS011;45732;52.850;6.896;2023-02-15T13:18:55;47.47;;;29.85;;
59854;SDS011;45732;52.850;6.896;2023-02-15T13:21:23;44.72;;;29.30;;
59854;SDS011;45732;52.850;6.896;2023-02-15T13:23:56;47.25;;;30.95;;
59854;SDS011;45732;52.850;6.896;2023-02-15T13:26:26;42.08;;;29.13;;
59854;SDS011;45732;52.850;6.896;2023-02-15T13:29:04;42.30;;;29.77;;
59854;SDS011;45732;52.850;6.896;2023-02-15T13:31:33;45.10;;;29.75;;
59854;SDS011;45732;52.850;6.896;2023-02-15T13:34:09;44.30;;;28.52;;
59854;SDS011;45732;52.850;6.896;2023-02-15T13:36:57;42.28;;;29.45;;
59854;SDS011;45732;52.850;6.896;2023-02-15T14:01:11;41.38;;;26.85;;
59854;SDS011;45732;52.850;6.896;2023-02-15T14:09:20;36.45;;;26.17;;
59854;SDS011;45732;52.850;6.896;2023-02-15T14:12:00;39.25;;;26.65;;
59854;SDS011;45732;52.850;6.896;2023-02-15T14:19:59;38.67;;;26.13;;
59854;SDS011;45732;52.850;6.896;2023-02-15T14:22:41;38.40;;;27.05;;
59854;SDS011;45732;52.850;6.896;2023-02-15T14:25:28;37.70;;;26.15;;
59854;SDS011;45732;52.850;6.896;2023-02-15T14:28:09;39.15;;;27.75;;
59854;SDS011;45732;52.850;6.896;2023-02-15T14:30:51;40.90;;;27.30;;
59854;SDS011;45732;52.850;6.896;2023-02-15T14:36:08;40.80;;;27.35;;
59854;SDS011;45732;52.850;6.896;2023-02-15T14:41:37;44.10;;;26.60;;
59854;SDS011;45732;52.850;6.896;2023-02-15T14:49:41;37.30;;;26.38;;
59854;SDS011;45732;52.850;6.896;2023-02-15T14:52:08;39.10;;;26.77;;
59854;SDS011;45732;52.850;6.896;2023-02-15T15:12:47;37.63;;;25.42;;
59854;SDS011;45732;52.850;6.896;2023-02-15T15:15:32;40.95;;;26.38;;
59854;SDS011;45732;52.850;6.896;2023-02-15T15:21:51;38.83;;;26.27;;
59854;SDS011;45732;52.850;6.896;2023-02-15T15:49:17;38.50;;;25.45;;
59854;SDS011;45732;52.850;6.896;2023-02-15T15:51:46;38.90;;;26.02;;
59854;SDS011;45732;52.850;6.896;2023-02-15T15:54:19;41.95;;;25.92;;
59854;SDS011;45732;52.850;6.896;2023-02-15T15:56:48;39.95;;;26.67;;
59854;SDS011;45732;52.850;6.896;2023-02-15T15:59:25;40.10;;;25.40;;
59854;SDS011;45732;52.850;6.896;2023-02-15T16:01:52;36.55;;;25.67;;
59854;SDS011;45732;52.850;6.896;2023-02-15T16:04:26;39.75;;;26.13;;
59854;SDS011;45732;52.850;6.896;2023-02-15T16:06:55;39.95;;;25.92;;
59854;SDS011;45732;52.850;6.896;2023-02-15T16:09:25;37.25;;;26.27;;
59854;SDS011;45732;52.850;6.896;2023-02-15T16:11:56;41.38;;;25.55;;
59854;SDS011;45732;52.850;6.896;2023-02-15T16:14:38;40.35;;;25.90;;
59854;SDS011;45732;52.850;6.896;2023-02-15T16:17:05;39.72;;;25.25;;
59854;SDS011;45732;52.850;6.896;2023-02-15T16:19:34;38.72;;;25.30;;
59854;SDS011;45732;52.850;6.896;2023-02-15T16:22:03;40.50;;;26.30;;
59854;SDS011;45732;52.850;6.896;2023-02-15T16:29:55;41.40;;;25.67;;
59854;SDS011;45732;52.850;6.896;2023-02-15T16:32:21;41.22;;;26.20;;
59854;SDS011;45732;52.850;6.896;2023-02-15T16:34:52;40.85;;;26.33;;
59854;SDS011;45732;52.850;6.896;2023-02-15T16:37:20;40.03;;;26.88;;
59854;SDS011;45732;52.850;6.896;2023-02-15T16:39:49;39.35;;;27.08;;
59854;SDS011;45732;52.850;6.896;2023-02-15T16:42:15;40.80;;;27.50;;
59854;SDS011;45732;52.850;6.896;2023-02-15T16:44:42;40.25;;;26.67;;
59854;SDS011;45732;52.850;6.896;2023-02-15T16:47:17;37.72;;;25.88;;
59854;SDS011;45732;52.850;6.896;2023-02-15T16:49:50;44.67;;;26.92;;
59854;SDS011;45732;52.850;6.896;2023-02-15T16:52:24;40.08;;;26.83;;
59854;SDS011;45732;52.850;6.896;2023-02-15T16:54:58;39.72;;;26.20;;
59854;SDS011;45732;52.850;6.896;2023-02-15T16:57:30;44.45;;;27.85;;
59854;SDS011;45732;52.850;6.896;2023-02-15T17:00:03;39.85;;;27.50;;
59854;SDS011;45732;52.850;6.896;2023-02-15T17:02:42;43.53;;;27.45;;
59854;SDS011;45732;52.850;6.896;2023-02-15T17:05:45;39.40;;;27.05;;
59854;SDS011;45732;52.850;6.896;2023-02-15T17:08:17;44.03;;;27.33;;
59854;SDS011;45732;52.850;6.896;2023-02-15T17:14:11;42.70;;;28.33;;
59854;SDS011;45732;52.850;6.896;2023-02-15T17:18:59;43.05;;;27.65;;
59854;SDS011;45732;52.850;6.896;2023-02-15T17:21:34;41.95;;;27.48;;
59854;SDS011;45732;52.850;6.896;2023-02-15T17:24:05;40.47;;;28.05;;
59854;SDS011;45732;52.850;6.896;2023-02-15T17:26:35;39.58;;;28.23;;
59854;SDS011;45732;52.850;6.896;2023-02-15T17:29:09;41.20;;;27.77;;
59854;SDS011;45732;52.850;6.896;2023-02-15T17:31:48;43.70;;;28.63;;
59854;SDS011;45732;52.850;6.896;2023-02-15T17:37:13;42.15;;;27.77;;
59854;SDS011;45732;52.850;6.896;2023-02-15T17:39:51;43.00;;;28.33;;
59854;SDS011;45732;52.850;6.896;2023-02-15T17:42:16;41.58;;;28.50;;
59854;SDS011;45732;52.850;6.896;2023-02-15T17:44:42;42.03;;;27.38;;
59854;SDS011;45732;52.850;6.896;2023-02-15T17:47:10;38.75;;;27.80;;
59854;SDS011;45732;52.850;6.896;2023-02-15T17:49:43;41.58;;;29.10;;
59854;SDS011;45732;52.850;6.896;2023-02-15T17:52:11;38.85;;;28.70;;
59854;SDS011;45732;52.850;6.896;2023-02-15T17:54:38;39.25;;;27.52;;
59854;SDS011;45732;52.850;6.896;2023-02-15T17:57:23;42.67;;;28.67;;
59854;SDS011;45732;52.850;6.896;2023-02-15T17:59:50;39.58;;;27.60;;
59854;SDS011;45732;52.850;6.896;2023-02-15T18:02:34;42.55;;;27.73;;
59854;SDS011;45732;52.850;6.896;2023-02-15T18:05:19;41.20;;;27.27;;
59854;SDS011;45732;52.850;6.896;2023-02-15T18:08:05;41.45;;;28.48;;
59854;SDS011;45732;52.850;6.896;2023-02-15T18:10:59;43.85;;;30.27;;
59854;SDS011;45732;52.850;6.896;2023-02-15T18:13:43;43.22;;;28.98;;
59854;SDS011;45732;52.850;6.896;2023-02-15T18:16:29;40.35;;;29.13;;
59854;SDS011;45732;52.850;6.896;2023-02-15T18:18:57;44.33;;;30.85;;